Time;durP1;ratioP1;P1;durP2;ratioP2;P2;SDS_P1;SDS_P2;PMS_P1;PMS_P2;Temp;Humidity;BMP_temperature;BMP_pressure;BME280_temperature;BME280_humidity;BME280_pressure;Samples;Min_cycle;Max_cycle;Signal;HPM_P1;HPM_P2
2022/12/26 00:00:55;;;;;;;;;;;;;;;;;;4387842;32;67048;-70
2022/12/26 00:03:41;;;;;;;;;;;;;;;;;;4387973;32;68387;-70
2022/12/26 00:06:27;;;;;;;;;;;;;;;;;;4399052;32;59052;-69
2022/12/26 00:09:14;;;;;;;;;;;;;;;;;;4388291;32;70992;-68
2022/12/26 00:12:00;;;;;;;;;;;;;;;;;;4399104;32;65222;-69
2022/12/26 00:14:47;;;;;;;;;;;;;;;;;;4398281;32;68537;-70
2022/12/26 00:17:33;;;;;;;;;;;;;;;;;;4399273;32;60109;-70
2022/12/26 00:20:21;;;;;;;;;;;;;;;;;;4399873;32;70115;-68
2022/12/26 00:23:07;;;;;;;;;;;;;;;;;;4398160;32;70060;-68
2022/12/26 00:25:53;;;;;;;;;;;;;;;;;;4398785;32;68042;-69
2022/12/26 00:28:40;;;;;;;;;;;;;;;;;;4399832;32;71146;-69
2022/12/26 00:31:27;;;;;;;;;;;;;;;;;;4398853;32;65859;-67
2022/12/26 00:34:13;;;;;;;;;;;;;;;;;;4398718;32;69501;-69
2022/12/26 00:37:00;;;;;;;;;;;;;;;;;;4387991;32;66876;-70
2022/12/26 00:39:47;;;;;;;;;;;;;;;;;;4387256;32;71492;-69
2022/12/26 00:42:34;;;;;;;;;;;;;;;;;;4387860;32;66377;-69
2022/12/26 00:45:21;;;;;;;;;;;;;;;;;;4376587;32;68402;-69
2022/12/26 00:48:07;;;;;;;;;;;;;;;;;;4377353;32;59543;-68
2022/12/26 00:50:53;;;;;;;;;;;;;;;;;;4386885;32;70572;-69
2022/12/26 00:53:40;;;;;;;;;;;;;;;;;;4398264;32;68680;-68
2022/12/26 00:56:26;;;;;;;;;;;;;;;;;;4387534;32;67597;-68
2022/12/26 00:59:13;;;;;;;;;;;;;;;;;;4387799;32;58760;-69
2022/12/26 01:01:59;;;;;;;;;;;;;;;;;;4387495;32;69321;-68
2022/12/26 01:04:46;;;;;;;;;;;;;;;;;;4387452;32;69700;-68
2022/12/26 01:07:33;;;;;;;;;;;;;;;;;;4398116;32;67859;-68
2022/12/26 01:10:20;;;;;;;;;;;;;;;;;;4387163;32;72270;-69
2022/12/26 01:13:07;;;;;;;;;;;;;;;;;;4376395;32;67064;-70
2022/12/26 01:15:53;;;;;;;;;;;;;;;;;;4399685;32;68657;-69
2022/12/26 01:18:39;;;;;;;;;;;;;;;;;;4376333;32;58479;-70
2022/12/26 01:21:26;;;;;;;;;;;;;;;;;;4375429;32;69745;-69
2022/12/26 01:24:12;;;;;;;;;;;;;;;;;;4375935;32;67053;-70
2022/12/26 01:26:59;;;;;;;;;;;;;;;;;;4396824;32;68438;-68
2022/12/26 01:29:45;;;;;;;;;;;;;;;;;;4376191;32;60197;-69
2022/12/26 01:32:31;;;;;;;;;;;;;;;;;;4386690;32;69831;-68
2022/12/26 01:35:18;;;;;;;;;;;;;;;;;;4387201;32;69403;-68
2022/12/26 01:38:04;;;;;;;;;;;;;;;;;;4376124;32;67445;-69
2022/12/26 01:41:33;;;;;;;;;;;;;;;;;;4387058;32;71799;-70
2022/12/26 01:44:01;;;;;;;;;;;;;;;;;;4398144;32;66012;-68
2022/12/26 01:46:48;;;;;;;;;;;;;;;;;;4376557;32;69254;-69
2022/12/26 01:49:35;;;;;;;;;;;;;;;;;;4387033;32;66802;-68
2022/12/26 01:52:28;;;;;;;;;;;;;;;;;;4376224;32;71619;-68
2022/12/26 01:55:15;;;;;;;;;;;;;;;;;;4377131;32;66809;-71
2022/12/26 01:58:04;;;;;;;;;;;;;;;;;;4377390;32;66951;-68
2022/12/26 02:00:51;;;;;;;;;;;;;;;;;;4387924;32;58638;-70
2022/12/26 02:06:43;;;;;;;;;;;;;;;;;;4398102;32;69487;-69
2022/12/26 02:09:29;;;;;;;;;;;;;;;;;;4397347;32;67810;-68
2022/12/26 02:12:27;;;;;;;;;;;;;;;;;;4386854;32;60178;-70
2022/12/26 02:15:14;;;;;;;;;;;;;;;;;;4396788;32;70608;-68
2022/12/26 02:18:01;;;;;;;;;;;;;;;;;;4376098;32;68444;-69
2022/12/26 02:20:53;;;;;;;;;;;;;;;;;;4396728;32;68326;-70
2022/12/26 02:23:39;;;;;;;;;;;;;;;;;;4397192;32;71795;-70
2022/12/26 02:26:32;;;;;;;;;;;;;;;;;;4375347;32;67275;-68
2022/12/26 02:29:31;;;;;;;;;;;;;;;;;;4386682;32;67901;-70
2022/12/26 02:32:36;;;;;;;;;;;;;;;;;;4397287;32;58962;-69
2022/12/26 02:35:45;;;;;;;;;;;;;;;;;;4385845;32;67670;-70
2022/12/26 02:38:37;;;;;;;;;;;;;;;;;;4366255;32;65965;-70
2022/12/26 02:41:26;;;;;;;;;;;;;;;;;;4389183;32;67430;-69
2022/12/26 02:47:38;;;;;;;;;;;;;;;;;;4388467;32;69930;-68
2022/12/26 03:19:00;;;;;;;;;;;;;;;;;;4400124;32;59689;-69
2022/12/26 03:21:47;;;;;;;;;;;;;;;;;;4378242;32;69126;-70
2022/12/26 03:26:38;;;;;;;;;;;;;;;;;;4388762;32;69474;-70
2022/12/26 03:27:40;;;;;;;;;;;;;;;;;;4399537;32;66851;-69
2022/12/26 03:36:53;;;;;;;;;;;;;;;;;;4399197;32;69476;-69
2022/12/26 04:46:22;;;;;;;;;;;;;;;;;;4378425;32;69797;-70
2022/12/26 04:52:14;;;;;;;;;;;;;;;;;;4399118;32;71822;-68
2022/12/26 04:55:01;;;;;;;;;;;;;;;;;;4366205;32;70676;-70
2022/12/26 04:57:47;;;;;;;;;;;;;;;;;;4365873;32;70736;-70
2022/12/26 05:00:34;;;;;;;;;;;;;;;;;;4386868;32;68532;-70
2022/12/26 05:09:34;;;;;;;;;;;;;;;;;;4388879;32;68728;-69
2022/12/26 05:12:22;;;;;;;;;;;;;;;;;;4388240;32;58660;-69
2022/12/26 05:15:09;;;;;;;;;;;;;;;;;;4386966;32;70704;-69
2022/12/26 05:30:19;;;;;;;;;;;;;;;;;;4389079;32;69409;-68
2022/12/26 05:36:10;;;;;;;;;;;;;;;;;;4397935;32;71697;-70
2022/12/26 05:38:56;;;;;;;;;;;;;;;;;;4386837;32;67373;-68
2022/12/26 05:41:43;;;;;;;;;;;;;;;;;;4386709;32;68435;-69
2022/12/26 05:44:29;;;;;;;;;;;;;;;;;;4398622;32;59728;-68
2022/12/26 05:47:15;;;;;;;;;;;;;;;;;;4399107;32;71574;-68
2022/12/26 05:50:02;;;;;;;;;;;;;;;;;;4397758;32;66098;-67
2022/12/26 05:52:49;;;;;;;;;;;;;;;;;;4386855;32;69191;-68
2022/12/26 05:55:35;;;;;;;;;;;;;;;;;;4398037;32;59748;-70
2022/12/26 05:58:22;;;;;;;;;;;;;;;;;;4386472;32;70647;-68
2022/12/26 06:01:13;;;;;;;;;;;;;;;;;;4386245;32;69211;-68
2022/12/26 06:03:59;;;;;;;;;;;;;;;;;;4375716;32;68369;-68
2022/12/26 06:06:46;;;;;;;;;;;;;;;;;;4375011;32;71515;-68
2022/12/26 06:09:32;;;;;;;;;;;;;;;;;;4387350;32;65357;-68
2022/12/26 06:12:19;;;;;;;;;;;;;;;;;;4397803;32;68490;-68
2022/12/26 06:15:06;;;;;;;;;;;;;;;;;;4386157;32;68163;-69
2022/12/26 06:17:53;;;;;;;;;;;;;;;;;;4386865;32;71962;-68
2022/12/26 06:20:40;;;;;;;;;;;;;;;;;;4396669;32;66048;-70
2022/12/26 06:23:26;;;;;;;;;;;;;;;;;;4396666;32;68735;-67
2022/12/26 06:26:13;;;;;;;;;;;;;;;;;;4397081;32;59308;-69
2022/12/26 06:28:59;;;;;;;;;;;;;;;;;;4386481;32;69143;-67
2022/12/26 06:31:45;;;;;;;;;;;;;;;;;;4398494;32;69596;-68
2022/12/26 06:34:32;;;;;;;;;;;;;;;;;;4364369;32;68159;-69
2022/12/26 06:37:19;;;;;;;;;;;;;;;;;;4397482;32;59979;-67
2022/12/26 06:40:06;;;;;;;;;;;;;;;;;;4398369;32;69421;-66
2022/12/26 06:42:53;;;;;;;;;;;;;;;;;;4397976;32;69454;-68
2022/12/26 06:45:39;;;;;;;;;;;;;;;;;;4367617;32;67344;-68
2022/12/26 06:48:25;;;;;;;;;;;;;;;;;;4403482;32;72147;-68
2022/12/26 06:51:13;;;;;;;;;;;;;;;;;;4380197;32;64912;-67
2022/12/26 06:54:03;;;;;;;;;;;;;;;;;;4390729;32;67276;-69
2022/12/26 06:56:49;;;;;;;;;;;;;;;;;;4397310;32;59782;-67
2022/12/26 06:59:36;;;;;;;;;;;;;;;;;;4386419;32;71057;-68
2022/12/26 07:02:23;;;;;;;;;;;;;;;;;;4375338;32;67481;-70
2022/12/26 07:05:09;;;;;;;;;;;;;;;;;;4396847;32;68130;-70
2022/12/26 07:07:55;;;;;;;;;;;;;;;;;;4386063;32;60632;-69
2022/12/26 07:10:42;;;;;;;;;;;;;;;;;;4386339;32;69070;-68
2022/12/26 07:13:28;;;;;;;;;;;;;;;;;;4375105;32;66847;-70
2022/12/26 07:16:15;;;;;;;;;;;;;;;;;;4375450;32;68538;-69
2022/12/26 07:19:02;;;;;;;;;;;;;;;;;;4364843;32;70629;-68
2022/12/26 07:21:49;;;;;;;;;;;;;;;;;;4386174;32;65010;-69
2022/12/26 07:24:36;;;;;;;;;;;;;;;;;;4386687;32;68699;-71
2022/12/26 07:27:23;;;;;;;;;;;;;;;;;;4398921;32;66554;-69
2022/12/26 07:30:09;;;;;;;;;;;;;;;;;;4398936;32;71068;-69
2022/12/26 07:32:55;;;;;;;;;;;;;;;;;;4388358;32;65731;-65
2022/12/26 07:35:42;;;;;;;;;;;;;;;;;;4377255;32;66912;-65
2022/12/26 07:38:28;;;;;;;;;;;;;;;;;;4399519;32;59735;-63
2022/12/26 07:44:20;;;;;;;;;;;;;;;;;;4379007;32;68987;-70
2022/12/26 07:47:06;;;;;;;;;;;;;;;;;;4398719;32;68829;-69
2022/12/26 07:49:53;;;;;;;;;;;;;;;;;;4401202;32;59001;-65
2022/12/26 07:52:39;;;;;;;;;;;;;;;;;;4387804;32;71429;-65
2022/12/26 07:55:26;;;;;;;;;;;;;;;;;;4387522;32;69221;-65
2022/12/26 07:58:12;;;;;;;;;;;;;;;;;;4398965;32;68011;-68
2022/12/26 08:01:01;;;;;;;;;;;;;;;;;;4388440;32;71593;-68
2022/12/26 08:03:48;;;;;;;;;;;;;;;;;;4376797;32;67139;-67
2022/12/26 08:06:34;;;;;;;;;;;;;;;;;;4366424;32;69081;-68
2022/12/26 08:09:22;;;;;;;;;;;;;;;;;;4398841;32;59225;-67
2022/12/26 08:12:08;;;;;;;;;;;;;;;;;;4398253;32;69931;-66
2022/12/26 08:14:54;;;;;;;;;;;;;;;;;;4398776;32;65704;-67
2022/12/26 08:17:41;;;;;;;;;;;;;;;;;;4398521;32;67554;-65
2022/12/26 08:20:27;;;;;;;;;;;;;;;;;;4377013;32;59412;-66
2022/12/26 08:23:13;;;;;;;;;;;;;;;;;;4387371;32;70520;-65
2022/12/26 08:26:07;;;;;;;;;;;;;;;;;;4377424;32;69219;-64
2022/12/26 08:28:53;;;;;;;;;;;;;;;;;;4377043;32;67875;-65
2022/12/26 08:31:40;;;;;;;;;;;;;;;;;;4377208;32;70762;-65
2022/12/26 08:34:30;;;;;;;;;;;;;;;;;;4398468;32;66111;-66
2022/12/26 08:37:17;;;;;;;;;;;;;;;;;;4376545;32;68807;-64
2022/12/26 08:40:03;;;;;;;;;;;;;;;;;;4397874;32;68365;-65
2022/12/26 08:42:54;;;;;;;;;;;;;;;;;;4386915;32;71666;-65
2022/12/26 08:45:40;;;;;;;;;;;;;;;;;;4387988;32;65287;-64
2022/12/26 08:48:27;;;;;;;;;;;;;;;;;;4387736;32;67364;-65
2022/12/26 08:51:14;;;;;;;;;;;;;;;;;;4398634;32;59795;-65
2022/12/26 08:54:00;;;;;;;;;;;;;;;;;;4387690;32;69373;-64
2022/12/26 08:56:47;;;;;;;;;;;;;;;;;;4376931;32;69652;-65
2022/12/26 08:59:33;;;;;;;;;;;;;;;;;;4399537;32;67816;-65
2022/12/26 09:02:20;;;;;;;;;;;;;;;;;;4397814;32;60232;-64
2022/12/26 09:05:07;;;;;;;;;;;;;;;;;;4397456;32;70439;-64
2022/12/26 09:07:54;;;;;;;;;;;;;;;;;;4376209;32;69857;-65
2022/12/26 09:10:40;;;;;;;;;;;;;;;;;;4387400;32;67688;-64
2022/12/26 09:13:26;;;;;;;;;;;;;;;;;;4375909;32;72626;-63
2022/12/26 09:16:14;;;;;;;;;;;;;;;;;;4387487;32;66085;-64
2022/12/26 09:19:01;;;;;;;;;;;;;;;;;;4398050;32;68139;-65
2022/12/26 09:21:48;;;;;;;;;;;;;;;;;;4376048;32;58766;-64
2022/12/26 09:24:34;;;;;;;;;;;;;;;;;;4386721;32;69731;-64
2022/12/26 09:27:20;;;;;;;;;;;;;;;;;;4387840;32;66026;-65
2022/12/26 09:30:07;;;;;;;;;;;;;;;;;;4399135;32;67190;-65
2022/12/26 09:32:54;;;;;;;;;;;;;;;;;;4376424;32;59403;-64
2022/12/26 09:35:40;;;;;;;;;;;;;;;;;;4387319;32;69673;-64
2022/12/26 09:38:27;;;;;;;;;;;;;;;;;;4376459;32;69551;-66
2022/12/26 09:41:31;;;;;;;;;;;;;;;;;;4375871;32;68416;-64
2022/12/26 09:44:27;;;;;;;;;;;;;;;;;;4386670;32;71608;-64
2022/12/26 09:47:18;;;;;;;;;;;;;;;;;;4396992;32;67046;-64
2022/12/26 09:50:08;;;;;;;;;;;;;;;;;;4387267;32;67544;-64
2022/12/26 09:52:57;;;;;;;;;;;;;;;;;;4398973;32;68202;-64
2022/12/26 09:55:45;;;;;;;;;;;;;;;;;;4386928;32;71840;-64
2022/12/26 09:58:43;;;;;;;;;;;;;;;;;;4375896;32;66073;-65
2022/12/26 10:01:34;;;;;;;;;;;;;;;;;;4376568;32;68041;-65
2022/12/26 10:04:28;;;;;;;;;;;;;;;;;;4387060;32;59972;-65
2022/12/26 10:07:23;;;;;;;;;;;;;;;;;;4397452;32;70031;-64
2022/12/26 10:10:09;;;;;;;;;;;;;;;;;;4386867;32;68407;-65
2022/12/26 10:12:58;;;;;;;;;;;;;;;;;;4398832;32;67587;-65
2022/12/26 10:15:49;;;;;;;;;;;;;;;;;;4375626;32;71875;-64
2022/12/26 10:18:38;;;;;;;;;;;;;;;;;;4396901;32;67634;-66
2022/12/26 10:21:30;;;;;;;;;;;;;;;;;;4397168;32;69441;-64
2022/12/26 10:24:19;;;;;;;;;;;;;;;;;;4375981;32;68499;-64
2022/12/26 10:27:08;;;;;;;;;;;;;;;;;;4397319;32;72208;-65
2022/12/26 10:29:56;;;;;;;;;;;;;;;;;;4386145;32;66901;-65
2022/12/26 10:32:43;;;;;;;;;;;;;;;;;;4376079;32;68172;-64
2022/12/26 10:35:31;;;;;;;;;;;;;;;;;;4386792;32;59777;-64
2022/12/26 10:38:26;;;;;;;;;;;;;;;;;;4375121;32;69175;-64
2022/12/26 10:41:18;;;;;;;;;;;;;;;;;;4386606;32;69588;-66
2022/12/26 10:44:05;;;;;;;;;;;;;;;;;;4386496;32;67052;-64
2022/12/26 10:47:11;;;;;;;;;;;;;;;;;;4376367;32;59698;-64
2022/12/26 10:49:58;;;;;;;;;;;;;;;;;;4386207;32;69802;-64
2022/12/26 10:52:45;;;;;;;;;;;;;;;;;;4376011;32;69492;-64
2022/12/26 10:55:32;;;;;;;;;;;;;;;;;;4385603;32;68400;-65
2022/12/26 10:58:29;;;;;;;;;;;;;;;;;;4375243;32;71301;-65
2022/12/26 11:01:27;;;;;;;;;;;;;;;;;;4389299;32;65038;-64
2022/12/26 11:04:14;;;;;;;;;;;;;;;;;;4378059;32;67528;-64
2022/12/26 11:07:01;;;;;;;;;;;;;;;;;;4378137;32;59512;-64
2022/12/26 11:09:48;;;;;;;;;;;;;;;;;;4399481;32;71953;-67
2022/12/26 11:12:37;;;;;;;;;;;;;;;;;;4367319;32;66571;-66
2022/12/26 11:15:33;;;;;;;;;;;;;;;;;;4367742;32;68611;-65
2022/12/26 11:18:21;;;;;;;;;;;;;;;;;;4399803;32;59741;-65
2022/12/26 11:21:17;;;;;;;;;;;;;;;;;;4398662;32;71090;-65
2022/12/26 11:24:07;;;;;;;;;;;;;;;;;;4389164;32;68992;-65
2022/12/26 11:26:53;;;;;;;;;;;;;;;;;;4399479;32;67904;-65
2022/12/26 11:29:41;;;;;;;;;;;;;;;;;;4388948;32;71981;-65
2022/12/26 11:32:29;;;;;;;;;;;;;;;;;;4399289;32;70103;-65
2022/12/26 11:35:19;;;;;;;;;;;;;;;;;;4377280;32;70002;-65
2022/12/26 11:38:06;;;;;;;;;;;;;;;;;;4377104;32;67399;-64
2022/12/26 11:44:13;;;;;;;;;;;;;;;;;;4390211;32;65393;-65
2022/12/26 11:47:06;;;;;;;;;;;;;;;;;;4388550;32;67539;-64
2022/12/26 11:49:59;;;;;;;;;;;;;;;;;;4399361;32;58889;-64
2022/12/26 11:52:54;;;;;;;;;;;;;;;;;;4399047;32;70326;-64
2022/12/26 11:55:40;;;;;;;;;;;;;;;;;;4376927;32;69148;-65
2022/12/26 11:58:28;;;;;;;;;;;;;;;;;;4398552;32;68659;-66
2022/12/26 12:01:14;;;;;;;;;;;;;;;;;;4388604;32;58883;-65
2022/12/26 12:04:01;;;;;;;;;;;;;;;;;;4376996;32;71215;-65
2022/12/26 12:07:23;;;;;;;;;;;;;;;;;;4388138;32;68712;-65
2022/12/26 12:10:33;;;;;;;;;;;;;;;;;;4341524;32;67708;-64
2022/12/26 12:13:24;;;;;;;;;;;;;;;;;;4377343;32;72538;-65
2022/12/26 12:16:30;;;;;;;;;;;;;;;;;;4399195;32;66181;-64
2022/12/26 12:19:19;;;;;;;;;;;;;;;;;;4388011;32;67259;-64
2022/12/26 12:22:25;;;;;;;;;;;;;;;;;;4377054;32;59499;-64
2022/12/26 12:25:20;;;;;;;;;;;;;;;;;;4376997;32;71419;-65
2022/12/26 12:28:07;;;;;;;;;;;;;;;;;;4387726;32;67266;-64
2022/12/26 12:31:04;;;;;;;;;;;;;;;;;;4377411;32;67482;-64
2022/12/26 12:33:57;;;;;;;;;;;;;;;;;;4387699;32;60580;-66
2022/12/26 12:36:50;;;;;;;;;;;;;;;;;;4388171;32;69231;-65
2022/12/26 12:39:46;;;;;;;;;;;;;;;;;;4388644;32;69269;-66
2022/12/26 12:42:36;;;;;;;;;;;;;;;;;;4388586;32;67559;-66
2022/12/26 12:45:25;;;;;;;;;;;;;;;;;;4388474;32;71903;-64
2022/12/26 12:48:32;;;;;;;;;;;;;;;;;;4388216;32;65082;-64
2022/12/26 12:51:21;;;;;;;;;;;;;;;;;;4400262;32;68473;-65
2022/12/26 12:54:16;;;;;;;;;;;;;;;;;;4398205;32;66787;-64
2022/12/26 12:57:05;;;;;;;;;;;;;;;;;;4387119;32;72360;-65
2022/12/26 13:00:11;;;;;;;;;;;;;;;;;;4387250;32;67220;-65
2022/12/26 13:03:02;;;;;;;;;;;;;;;;;;4377259;32;67431;-65
2022/12/26 13:06:00;;;;;;;;;;;;;;;;;;4387648;32;58944;-66
2022/12/26 13:09:01;;;;;;;;;;;;;;;;;;4376100;32;68510;-66
2022/12/26 13:11:50;;;;;;;;;;;;;;;;;;4398080;32;68436;-66
2022/12/26 13:14:39;;;;;;;;;;;;;;;;;;4387172;32;67399;-64
2022/12/26 13:17:28;;;;;;;;;;;;;;;;;;4399622;32;58935;-64
2022/12/26 13:20:16;;;;;;;;;;;;;;;;;;4387276;32;70525;-64
2022/12/26 13:26:25;;;;;;;;;;;;;;;;;;4388403;32;68943;-65
2022/12/26 13:29:16;;;;;;;;;;;;;;;;;;4397974;32;71775;-65
2022/12/26 13:32:06;;;;;;;;;;;;;;;;;;4387275;32;65268;-65
2022/12/26 13:34:56;;;;;;;;;;;;;;;;;;4397781;32;67164;-66
2022/12/26 13:37:53;;;;;;;;;;;;;;;;;;4387630;32;59947;-66
2022/12/26 13:40:50;;;;;;;;;;;;;;;;;;4386996;32;70212;-64
2022/12/26 13:43:55;;;;;;;;;;;;;;;;;;4376482;32;66477;-64
2022/12/26 13:46:43;;;;;;;;;;;;;;;;;;4377852;32;68567;-64
2022/12/26 13:49:34;;;;;;;;;;;;;;;;;;4398669;32;59783;-66
2022/12/26 13:52:21;;;;;;;;;;;;;;;;;;4389321;32;70105;-65
2022/12/26 13:55:11;;;;;;;;;;;;;;;;;;4399598;32;69403;-65
2022/12/26 13:58:07;;;;;;;;;;;;;;;;;;4387463;32;68335;-66
2022/12/26 14:00:58;;;;;;;;;;;;;;;;;;4366651;32;72494;-65
2022/12/26 14:04:04;;;;;;;;;;;;;;;;;;4398239;32;65119;-64
2022/12/26 14:06:51;;;;;;;;;;;;;;;;;;4397574;32;69330;-65
2022/12/26 14:09:38;;;;;;;;;;;;;;;;;;4397556;32;67916;-66
2022/12/26 14:12:41;;;;;;;;;;;;;;;;;;4396811;32;72293;-65
2022/12/26 14:15:30;;;;;;;;;;;;;;;;;;4365322;32;63901;-66
2022/12/26 14:18:20;;;;;;;;;;;;;;;;;;4376332;32;67467;-65
2022/12/26 14:21:10;;;;;;;;;;;;;;;;;;4386295;32;59645;-64
2022/12/26 14:23:56;;;;;;;;;;;;;;;;;;4397238;32;70147;-65
2022/12/26 14:26:42;;;;;;;;;;;;;;;;;;4386065;32;69597;-64
2022/12/26 14:29:44;;;;;;;;;;;;;;;;;;4386424;32;66944;-64
2022/12/26 14:32:41;;;;;;;;;;;;;;;;;;4386795;32;59401;-65
2022/12/26 14:35:32;;;;;;;;;;;;;;;;;;4398616;32;69947;-65
2022/12/26 14:43:09;;;;;;;;;;;;;;;;;;3848075;37;43774;-63
2022/12/26 14:44:17;;;;;;;;;;;;;;;;;;4388440;32;60313;-66
2022/12/26 14:47:04;;;;;;;;;;;;;;;;;;4378542;32;69828;-66
2022/12/26 14:49:51;;;;;;;;;;;;;;;;;;4389062;32;68578;-65
2022/12/26 14:52:39;;;;;;;;;;;;;;;;;;4399749;32;68016;-65
2022/12/26 14:55:41;;;;;;;;;;;;;;;;;;4399267;32;72055;-64
2022/12/26 14:58:27;;;;;;;;;;;;;;;;;;4388823;32;66227;-64
2022/12/26 15:01:17;;;;;;;;;;;;;;;;;;4399644;32;66641;-65
2022/12/26 15:04:10;;;;;;;;;;;;;;;;;;4399447;32;59805;-64
2022/12/26 15:07:16;;;;;;;;;;;;;;;;;;4374909;32;72107;-64
2022/12/26 15:10:25;;;;;;;;;;;;;;;;;;4385591;32;67589;-65
2022/12/26 15:13:12;;;;;;;;;;;;;;;;;;4374283;32;67951;-64
2022/12/26 15:15:59;;;;;;;;;;;;;;;;;;4411591;32;59772;-64
2022/12/26 15:18:46;;;;;;;;;;;;;;;;;;4399425;32;69196;-65
2022/12/26 15:21:47;;;;;;;;;;;;;;;;;;4411295;32;68546;-64
2022/12/26 15:24:52;;;;;;;;;;;;;;;;;;4399003;32;67147;-65
2022/12/26 15:27:50;;;;;;;;;;;;;;;;;;4411169;32;71191;-64
2022/12/26 15:30:43;;;;;;;;;;;;;;;;;;4395399;32;64909;-64
2022/12/26 15:33:35;;;;;;;;;;;;;;;;;;4382680;32;69566;-66
2022/12/26 15:36:25;;;;;;;;;;;;;;;;;;4395681;32;67747;-65
2022/12/26 15:39:30;;;;;;;;;;;;;;;;;;4361797;32;71439;-65
2022/12/26 15:42:23;;;;;;;;;;;;;;;;;;4395801;32;65126;-64
2022/12/26 15:45:18;;;;;;;;;;;;;;;;;;4383790;32;67427;-64
2022/12/26 15:48:24;;;;;;;;;;;;;;;;;;4384187;32;59869;-65
2022/12/26 15:51:11;;;;;;;;;;;;;;;;;;4367341;32;70512;-65
2022/12/26 15:54:01;;;;;;;;;;;;;;;;;;4373591;32;69698;-65
2022/12/26 15:56:49;;;;;;;;;;;;;;;;;;4384155;32;67466;-64
2022/12/26 15:59:39;;;;;;;;;;;;;;;;;;4362217;32;60783;-64
2022/12/26 16:02:26;;;;;;;;;;;;;;;;;;4385286;32;70367;-65
2022/12/26 16:05:48;;;;;;;;;;;;;;;;;;4383876;32;69937;-64
2022/12/26 16:08:40;;;;;;;;;;;;;;;;;;4312290;32;67299;-66
2022/12/26 16:11:37;;;;;;;;;;;;;;;;;;4374025;32;71056;-64
2022/12/26 16:14:33;;;;;;;;;;;;;;;;;;4363704;32;66887;-64
2022/12/26 16:17:20;;;;;;;;;;;;;;;;;;4373347;32;67981;-64
2022/12/26 16:22:42;;;;;;;;;;;;;;;;;;4372758;32;60464;-65
2022/12/26 16:23:27;;;;;;;;;;;;;;;;;;4377254;32;69843;-65
2022/12/26 16:26:17;;;;;;;;;;;;;;;;;;4377513;32;66308;-65
2022/12/26 16:29:03;;;;;;;;;;;;;;;;;;4377062;32;67314;-64
2022/12/26 16:31:50;;;;;;;;;;;;;;;;;;4376349;32;58813;-65
2022/12/26 16:34:39;;;;;;;;;;;;;;;;;;4384815;32;69478;-66
2022/12/26 16:37:26;;;;;;;;;;;;;;;;;;4383926;32;68441;-64
2022/12/26 16:40:18;;;;;;;;;;;;;;;;;;4383112;32;67729;-65
2022/12/26 16:43:06;;;;;;;;;;;;;;;;;;4371831;32;72309;-64
2022/12/26 16:45:54;;;;;;;;;;;;;;;;;;4373120;32;66218;-65
2022/12/26 16:48:40;;;;;;;;;;;;;;;;;;4384826;32;67592;-66
2022/12/26 16:51:33;;;;;;;;;;;;;;;;;;4362465;32;67962;-65
2022/12/26 16:54:19;;;;;;;;;;;;;;;;;;4361501;32;72260;-64
2022/12/26 16:57:05;;;;;;;;;;;;;;;;;;4383383;32;66432;-65
2022/12/26 16:59:56;;;;;;;;;;;;;;;;;;4382958;32;68113;-65
2022/12/26 17:02:44;;;;;;;;;;;;;;;;;;4383820;32;59735;-64
2022/12/26 17:05:31;;;;;;;;;;;;;;;;;;4383012;32;69143;-65
2022/12/26 17:08:18;;;;;;;;;;;;;;;;;;4361155;32;67772;-65
2022/12/26 17:11:04;;;;;;;;;;;;;;;;;;4361859;32;67808;-65
2022/12/26 17:13:51;;;;;;;;;;;;;;;;;;4383276;32;59428;-65
2022/12/26 17:16:37;;;;;;;;;;;;;;;;;;4372393;32;70432;-65
2022/12/26 17:19:27;;;;;;;;;;;;;;;;;;4372625;32;68468;-66
2022/12/26 17:22:13;;;;;;;;;;;;;;;;;;4362015;32;68035;-64
2022/12/26 17:25:25;;;;;;;;;;;;;;;;;;4384234;32;71916;-65
2022/12/26 17:28:16;;;;;;;;;;;;;;;;;;4384290;32;65086;-65
2022/12/26 17:31:15;;;;;;;;;;;;;;;;;;4383245;32;66994;-65
2022/12/26 17:34:03;;;;;;;;;;;;;;;;;;4372528;32;60015;-66
2022/12/26 17:36:50;;;;;;;;;;;;;;;;;;4372150;32;69070;-65
2022/12/26 17:39:36;;;;;;;;;;;;;;;;;;4383816;32;66191;-65
2022/12/26 17:42:23;;;;;;;;;;;;;;;;;;4384096;32;67650;-65
2022/12/26 17:45:17;;;;;;;;;;;;;;;;;;4372319;32;59731;-65
2022/12/26 17:48:04;;;;;;;;;;;;;;;;;;4382096;32;70429;-65
2022/12/26 17:50:55;;;;;;;;;;;;;;;;;;4350781;32;67498;-67
2022/12/26 17:53:44;;;;;;;;;;;;;;;;;;4371204;32;67503;-65
2022/12/26 17:56:30;;;;;;;;;;;;;;;;;;4350693;32;72126;-65
2022/12/26 17:59:17;;;;;;;;;;;;;;;;;;4350301;32;66230;-67
2022/12/26 18:02:03;;;;;;;;;;;;;;;;;;4372220;32;67024;-65
2022/12/26 18:04:50;;;;;;;;;;;;;;;;;;4372032;32;67999;-64
2022/12/26 18:07:36;;;;;;;;;;;;;;;;;;4371205;32;72327;-64
2022/12/26 18:10:24;;;;;;;;;;;;;;;;;;4350244;32;65740;-64
2022/12/26 18:13:11;;;;;;;;;;;;;;;;;;4350155;32;67461;-66
2022/12/26 18:15:57;;;;;;;;;;;;;;;;;;4350695;32;60233;-65
2022/12/26 18:18:44;;;;;;;;;;;;;;;;;;4361134;32;70340;-66
2022/12/26 18:21:30;;;;;;;;;;;;;;;;;;4360926;32;67941;-65
2022/12/26 18:24:16;;;;;;;;;;;;;;;;;;4371527;32;67821;-66
2022/12/26 18:27:03;;;;;;;;;;;;;;;;;;4383794;32;72142;-64
2022/12/26 18:29:51;;;;;;;;;;;;;;;;;;4371570;32;69158;-65
2022/12/26 18:32:37;;;;;;;;;;;;;;;;;;4371568;32;68489;-66
2022/12/26 18:35:24;;;;;;;;;;;;;;;;;;4371859;32;67942;-66
2022/12/26 18:38:14;;;;;;;;;;;;;;;;;;4370602;32;73151;-66
2022/12/26 18:41:01;;;;;;;;;;;;;;;;;;4360037;32;67032;-64
2022/12/26 18:43:47;;;;;;;;;;;;;;;;;;4382311;32;67959;-64
2022/12/26 18:46:33;;;;;;;;;;;;;;;;;;4350437;32;57575;-64
2022/12/26 18:49:20;;;;;;;;;;;;;;;;;;4360301;32;69839;-65
2022/12/26 18:52:06;;;;;;;;;;;;;;;;;;4382223;32;69588;-65
2022/12/26 18:54:53;;;;;;;;;;;;;;;;;;4381754;32;66764;-65
2022/12/26 18:57:39;;;;;;;;;;;;;;;;;;4382244;32;58986;-66
2022/12/26 19:00:26;;;;;;;;;;;;;;;;;;4382026;32;69067;-65
2022/12/26 19:03:12;;;;;;;;;;;;;;;;;;4382082;32;69557;-65
2022/12/26 19:05:59;;;;;;;;;;;;;;;;;;4360223;32;68102;-65
2022/12/26 19:08:45;;;;;;;;;;;;;;;;;;4383438;32;72092;-64
2022/12/26 19:11:31;;;;;;;;;;;;;;;;;;4371529;32;65192;-66
2022/12/26 19:14:18;;;;;;;;;;;;;;;;;;4360602;32;68302;-64
2022/12/26 19:17:05;;;;;;;;;;;;;;;;;;4371491;32;58940;-64
2022/12/26 19:19:51;;;;;;;;;;;;;;;;;;4370947;32;70926;-65
2022/12/26 19:22:37;;;;;;;;;;;;;;;;;;4381752;32;66589;-64
2022/12/26 19:25:24;;;;;;;;;;;;;;;;;;4360624;32;68095;-64
2022/12/26 19:28:10;;;;;;;;;;;;;;;;;;4385398;32;58770;-64
2022/12/26 19:30:57;;;;;;;;;;;;;;;;;;4372847;32;70102;-64
2022/12/26 19:33:44;;;;;;;;;;;;;;;;;;4384420;32;69049;-64
2022/12/26 19:36:30;;;;;;;;;;;;;;;;;;4373127;32;68173;-65
2022/12/26 19:39:16;;;;;;;;;;;;;;;;;;4385329;32;71139;-66
2022/12/26 19:42:03;;;;;;;;;;;;;;;;;;4373428;32;69364;-67
2022/12/26 19:44:50;;;;;;;;;;;;;;;;;;4384431;32;69329;-65
2022/12/26 19:47:36;;;;;;;;;;;;;;;;;;4373221;32;67742;-69
2022/12/26 19:50:23;;;;;;;;;;;;;;;;;;4372940;32;71396;-64
2022/12/26 19:53:09;;;;;;;;;;;;;;;;;;4373576;32;66155;-65
2022/12/26 19:55:57;;;;;;;;;;;;;;;;;;4373693;32;67795;-66
2022/12/26 19:58:44;;;;;;;;;;;;;;;;;;4373051;32;60386;-66
2022/12/26 20:01:31;;;;;;;;;;;;;;;;;;4362008;32;70468;-65
2022/12/26 20:04:17;;;;;;;;;;;;;;;;;;4383964;32;70081;-66
2022/12/26 20:07:04;;;;;;;;;;;;;;;;;;4385658;32;68074;-65
2022/12/26 20:09:50;;;;;;;;;;;;;;;;;;4362795;32;59402;-66
2022/12/26 20:12:36;;;;;;;;;;;;;;;;;;4383837;32;70121;-65
2022/12/26 20:15:23;;;;;;;;;;;;;;;;;;4383728;32;69578;-65
2022/12/26 20:18:09;;;;;;;;;;;;;;;;;;4383244;32;69145;-65
2022/12/26 20:20:56;;;;;;;;;;;;;;;;;;4372956;32;72110;-65
2022/12/26 20:23:42;;;;;;;;;;;;;;;;;;4383944;32;66520;-65
2022/12/26 20:26:29;;;;;;;;;;;;;;;;;;4383779;32;67413;-67
2022/12/26 20:29:15;;;;;;;;;;;;;;;;;;4362096;32;60323;-64
2022/12/26 20:32:02;;;;;;;;;;;;;;;;;;4383566;32;71061;-65
2022/12/26 20:34:48;;;;;;;;;;;;;;;;;;4383673;32;65829;-65
2022/12/26 20:37:34;;;;;;;;;;;;;;;;;;4383343;32;67829;-64
2022/12/26 20:40:20;;;;;;;;;;;;;;;;;;4362118;32;59192;-64
2022/12/26 20:43:07;;;;;;;;;;;;;;;;;;4383475;32;70554;-64
2022/12/26 20:45:54;;;;;;;;;;;;;;;;;;4372498;32;70465;-64
2022/12/26 20:48:40;;;;;;;;;;;;;;;;;;4372945;32;68166;-65
2022/12/26 20:51:30;;;;;;;;;;;;;;;;;;4371891;32;72539;-64
2022/12/26 20:54:17;;;;;;;;;;;;;;;;;;4383587;32;65113;-65
2022/12/26 20:57:03;;;;;;;;;;;;;;;;;;4383463;32;69572;-65
2022/12/26 20:59:50;;;;;;;;;;;;;;;;;;4382772;32;68250;-66
2022/12/26 21:02:36;;;;;;;;;;;;;;;;;;4350697;32;70724;-65
2022/12/26 21:05:40;;;;;;;;;;;;;;;;;;3847819;37;43708;-64
2022/12/26 21:08:26;;;;;;;;;;;;;;;;;;4389395;32;59174;-65
2022/12/26 21:11:14;;;;;;;;;;;;;;;;;;4375566;32;70676;-65
2022/12/26 21:14:01;;;;;;;;;;;;;;;;;;4411976;32;69290;-65
2022/12/26 21:16:48;;;;;;;;;;;;;;;;;;4376515;32;68184;-65
2022/12/26 21:19:35;;;;;;;;;;;;;;;;;;4390819;32;70956;-65
2022/12/26 21:22:22;;;;;;;;;;;;;;;;;;4388389;32;67001;-67
2022/12/26 21:25:09;;;;;;;;;;;;;;;;;;4392643;32;67576;-64
2022/12/26 21:27:58;;;;;;;;;;;;;;;;;;4405139;32;58915;-65
2022/12/26 21:30:45;;;;;;;;;;;;;;;;;;4398696;32;71257;-65
2022/12/26 21:33:31;;;;;;;;;;;;;;;;;;4399161;32;66371;-65
2022/12/26 21:36:17;;;;;;;;;;;;;;;;;;4397730;32;68093;-65
2022/12/26 21:39:04;;;;;;;;;;;;;;;;;;4400131;32;60084;-64
2022/12/26 21:41:51;;;;;;;;;;;;;;;;;;4387606;32;69238;-65